sensor_id;sensor_type;location;lat;lon;timestamp;temperature;humidity
54409;DHT22;40315;48.620;9.828;2023-04-15T00:00:24;4.40;99.90
54409;DHT22;40315;48.620;9.828;2023-04-15T00:02:51;4.30;99.90
54409;DHT22;40315;48.620;9.828;2023-04-15T00:05:20;4.20;99.90
54409;DHT22;40315;48.620;9.828;2023-04-15T00:07:47;4.10;99.90
54409;DHT22;40315;48.620;9.828;2023-04-15T00:10:14;4.00;99.90
54409;DHT22;40315;48.620;9.828;2023-04-15T00:12:41;4.80;99.90
54409;DHT22;40315;48.620;9.828;2023-04-15T00:15:11;3.90;99.90
54409;DHT22;40315;48.620;9.828;2023-04-15T00:17:38;3.90;99.90
54409;DHT22;40315;48.620;9.828;2023-04-15T00:20:08;4.10;99.90
54409;DHT22;40315;48.620;9.828;2023-04-15T00:22:37;4.10;99.90
54409;DHT22;40315;48.620;9.828;2023-04-15T00:25:04;4.20;99.90
54409;DHT22;40315;48.620;9.828;2023-04-15T00:27:33;4.30;99.90
54409;DHT22;40315;48.620;9.828;2023-04-15T00:30:03;4.30;99.90
54409;DHT22;40315;48.620;9.828;2023-04-15T00:32:31;4.40;99.90
54409;DHT22;40315;48.620;9.828;2023-04-15T00:35:01;4.40;99.90
54409;DHT22;40315;48.620;9.828;2023-04-15T00:37:28;4.50;99.90
54409;DHT22;40315;48.620;9.828;2023-04-15T00:39:57;4.20;99.90
54409;DHT22;40315;48.620;9.828;2023-04-15T00:42:24;4.30;99.90
54409;DHT22;40315;48.620;9.828;2023-04-15T00:44:51;4.20;99.90
54409;DHT22;40315;48.620;9.828;2023-04-15T00:47:19;4.10;99.90
54409;DHT22;40315;48.620;9.828;2023-04-15T00:49:46;4.00;99.90
54409;DHT22;40315;48.620;9.828;2023-04-15T00:52:13;3.90;99.90
54409;DHT22;40315;48.620;9.828;2023-04-15T00:54:40;3.90;99.90
54409;DHT22;40315;48.620;9.828;2023-04-15T00:57:09;4.10;99.90
54409;DHT22;40315;48.620;9.828;2023-04-15T00:59:36;4.40;99.90
54409;DHT22;40315;48.620;9.828;2023-04-15T01:02:06;4.10;99.90
54409;DHT22;40315;48.620;9.828;2023-04-15T01:04:33;4.10;99.90
54409;DHT22;40315;48.620;9.828;2023-04-15T01:07:03;4.10;99.90
54409;DHT22;40315;48.620;9.828;2023-04-15T01:09:31;4.00;99.90
54409;DHT22;40315;48.620;9.828;2023-04-15T01:11:59;3.90;99.90
54409;DHT22;40315;48.620;9.828;2023-04-15T01:14:30;3.90;99.90
54409;DHT22;40315;48.620;9.828;2023-04-15T01:16:58;4.80;99.90
54409;DHT22;40315;48.620;9.828;2023-04-15T01:19:25;3.90;99.90
54409;DHT22;40315;48.620;9.828;2023-04-15T01:21:53;4.00;99.90
54409;DHT22;40315;48.620;9.828;2023-04-15T01:24:25;4.00;99.90
54409;DHT22;40315;48.620;9.828;2023-04-15T01:26:55;4.30;99.90
54409;DHT22;40315;48.620;9.828;2023-04-15T01:29:23;4.10;99.90
54409;DHT22;40315;48.620;9.828;2023-04-15T01:31:50;4.10;99.90
54409;DHT22;40315;48.620;9.828;2023-04-15T01:34:20;4.10;99.90
54409;DHT22;40315;48.620;9.828;2023-04-15T01:36:52;4.70;99.90
54409;DHT22;40315;48.620;9.828;2023-04-15T01:39:20;4.10;99.90
54409;DHT22;40315;48.620;9.828;2023-04-15T01:41:48;4.10;99.90
54409;DHT22;40315;48.620;9.828;2023-04-15T01:44:18;4.20;99.90
54409;DHT22;40315;48.620;9.828;2023-04-15T01:50:14;4.20;99.90
54409;DHT22;40315;48.620;9.828;2023-04-15T01:52:41;4.10;99.90
54409;DHT22;40315;48.620;9.828;2023-04-15T01:55:09;3.80;99.90
54409;DHT22;40315;48.620;9.828;2023-04-15T01:57:38;3.70;99.90
54409;DHT22;40315;48.620;9.828;2023-04-15T02:00:08;3.50;99.90
54409;DHT22;40315;48.620;9.828;2023-04-15T02:02:39;3.40;99.90
54409;DHT22;40315;48.620;9.828;2023-04-15T02:05:07;3.40;99.90
54409;DHT22;40315;48.620;9.828;2023-04-15T02:07:36;3.60;99.90
54409;DHT22;40315;48.620;9.828;2023-04-15T02:10:09;3.80;99.90
54409;DHT22;40315;48.620;9.828;2023-04-15T02:12:37;3.60;99.90
54409;DHT22;40315;48.620;9.828;2023-04-15T02:15:09;3.60;99.90
54409;DHT22;40315;48.620;9.828;2023-04-15T02:17:36;3.60;99.90
54409;DHT22;40315;48.620;9.828;2023-04-15T02:20:08;3.50;99.90
54409;DHT22;40315;48.620;9.828;2023-04-15T02:22:35;3.50;99.90
54409;DHT22;40315;48.620;9.828;2023-04-15T02:25:02;3.50;99.90
54409;DHT22;40315;48.620;9.828;2023-04-15T02:27:31;3.50;99.90
54409;DHT22;40315;48.620;9.828;2023-04-15T02:29:58;3.50;99.90
54409;DHT22;40315;48.620;9.828;2023-04-15T02:32:27;3.50;99.90
54409;DHT22;40315;48.620;9.828;2023-04-15T02:34:58;3.50;99.90
54409;DHT22;40315;48.620;9.828;2023-04-15T02:37:28;4.00;99.90
54409;DHT22;40315;48.620;9.828;2023-04-15T02:39:57;3.50;99.90
54409;DHT22;40315;48.620;9.828;2023-04-15T02:42:24;3.50;99.90
54409;DHT22;40315;48.620;9.828;2023-04-15T02:44:55;3.40;99.90
54409;DHT22;40315;48.620;9.828;2023-04-15T02:47:29;3.30;99.90
54409;DHT22;40315;48.620;9.828;2023-04-15T02:49:56;3.30;99.90
54409;DHT22;40315;48.620;9.828;2023-04-15T02:52:28;3.30;99.90
54409;DHT22;40315;48.620;9.828;2023-04-15T02:54:55;3.30;99.90
54409;DHT22;40315;48.620;9.828;2023-04-15T02:57:26;3.40;99.90
54409;DHT22;40315;48.620;9.828;2023-04-15T02:59:58;3.40;99.90
54409;DHT22;40315;48.620;9.828;2023-04-15T03:02:26;3.40;99.90
54409;DHT22;40315;48.620;9.828;2023-04-15T03:04:55;3.40;99.90
54409;DHT22;40315;48.620;9.828;2023-04-15T03:07:23;3.40;99.90
54409;DHT22;40315;48.620;9.828;2023-04-15T03:09:52;3.40;99.90
54409;DHT22;40315;48.620;9.828;2023-04-15T03:12:19;4.60;99.90
54409;DHT22;40315;48.620;9.828;2023-04-15T03:14:46;3.50;99.90
54409;DHT22;40315;48.620;9.828;2023-04-15T03:17:14;3.60;99.90
54409;DHT22;40315;48.620;9.828;2023-04-15T03:19:43;3.60;99.90
54409;DHT22;40315;48.620;9.828;2023-04-15T03:22:12;3.50;99.90
54409;DHT22;40315;48.620;9.828;2023-04-15T03:24:39;3.40;99.90
54409;DHT22;40315;48.620;9.828;2023-04-15T03:27:06;3.50;99.90
54409;DHT22;40315;48.620;9.828;2023-04-15T03:29:34;3.40;99.90
54409;DHT22;40315;48.620;9.828;2023-04-15T03:32:04;3.40;99.90
54409;DHT22;40315;48.620;9.828;2023-04-15T03:34:33;3.50;99.90
54409;DHT22;40315;48.620;9.828;2023-04-15T03:37:01;4.50;99.90
54409;DHT22;40315;48.620;9.828;2023-04-15T03:39:29;3.50;99.90
54409;DHT22;40315;48.620;9.828;2023-04-15T03:41:56;3.40;99.90
54409;DHT22;40315;48.620;9.828;2023-04-15T03:44:26;3.30;99.90
54409;DHT22;40315;48.620;9.828;2023-04-15T03:46:53;3.30;99.90
54409;DHT22;40315;48.620;9.828;2023-04-15T03:49:19;3.30;99.90
54409;DHT22;40315;48.620;9.828;2023-04-15T03:51:47;3.30;99.90
54409;DHT22;40315;48.620;9.828;2023-04-15T03:54:15;3.30;99.90
54409;DHT22;40315;48.620;9.828;2023-04-15T03:56:44;3.20;99.90
54409;DHT22;40315;48.620;9.828;2023-04-15T03:59:14;3.20;99.90
54409;DHT22;40315;48.620;9.828;2023-04-15T04:01:41;3.20;99.90
54409;DHT22;40315;48.620;9.828;2023-04-15T04:04:08;3.20;99.90
54409;DHT22;40315;48.620;9.828;2023-04-15T04:06:35;3.20;99.90
54409;DHT22;40315;48.620;9.828;2023-04-15T04:09:02;3.10;99.90
54409;DHT22;40315;48.620;9.828;2023-04-15T04:11:29;2.90;99.90
54409;DHT22;40315;48.620;9.828;2023-04-15T04:14:03;3.00;99.90
54409;DHT22;40315;48.620;9.828;2023-04-15T04:16:30;2.70;99.90
54409;DHT22;40315;48.620;9.828;2023-04-15T04:18:57;3.10;99.90
54409;DHT22;40315;48.620;9.828;2023-04-15T04:21:24;2.60;99.90
54409;DHT22;40315;48.620;9.828;2023-04-15T04:23:59;2.50;99.90
54409;DHT22;40315;48.620;9.828;2023-04-15T04:26:27;2.50;99.90
54409;DHT22;40315;48.620;9.828;2023-04-15T04:28:54;2.50;99.90
54409;DHT22;40315;48.620;9.828;2023-04-15T04:31:25;2.50;99.90
54409;DHT22;40315;48.620;9.828;2023-04-15T04:33:52;2.50;99.90
54409;DHT22;40315;48.620;9.828;2023-04-15T04:36:19;2.60;99.90
54409;DHT22;40315;48.620;9.828;2023-04-15T04:38:46;2.70;99.90
54409;DHT22;40315;48.620;9.828;2023-04-15T04:41:13;2.80;99.90
54409;DHT22;40315;48.620;9.828;2023-04-15T04:43:40;2.80;99.90
54409;DHT22;40315;48.620;9.828;2023-04-15T04:46:07;2.90;99.90
54409;DHT22;40315;48.620;9.828;2023-04-15T04:48:38;2.60;99.90
54409;DHT22;40315;48.620;9.828;2023-04-15T04:51:05;2.50;99.90
54409;DHT22;40315;48.620;9.828;2023-04-15T04:53:33;2.50;99.90
54409;DHT22;40315;48.620;9.828;2023-04-15T04:56:00;2.50;99.90
54409;DHT22;40315;48.620;9.828;2023-04-15T04:58:27;2.60;99.90
54409;DHT22;40315;48.620;9.828;2023-04-15T05:00:54;2.70;99.90
54409;DHT22;40315;48.620;9.828;2023-04-15T05:03:22;2.70;99.90
54409;DHT22;40315;48.620;9.828;2023-04-15T05:05:52;2.70;99.90
54409;DHT22;40315;48.620;9.828;2023-04-15T05:08:19;2.80;99.90
54409;DHT22;40315;48.620;9.828;2023-04-15T05:10:46;2.80;99.90
54409;DHT22;40315;48.620;9.828;2023-04-15T05:13:16;2.90;99.90
54409;DHT22;40315;48.620;9.828;2023-04-15T05:15:43;4.10;99.90
54409;DHT22;40315;48.620;9.828;2023-04-15T05:18:10;2.70;99.90
54409;DHT22;40315;48.620;9.828;2023-04-15T05:20:37;4.50;99.90
54409;DHT22;40315;48.620;9.828;2023-04-15T05:23:08;2.80;99.90
54409;DHT22;40315;48.620;9.828;2023-04-15T05:25:35;2.90;99.90
54409;DHT22;40315;48.620;9.828;2023-04-15T05:28:01;3.90;99.90
54409;DHT22;40315;48.620;9.828;2023-04-15T05:30:28;3.20;99.90
54409;DHT22;40315;48.620;9.828;2023-04-15T05:32:55;3.20;99.90
54409;DHT22;40315;48.620;9.828;2023-04-15T05:35:22;3.20;99.90
54409;DHT22;40315;48.620;9.828;2023-04-15T05:37:49;3.20;99.90
54409;DHT22;40315;48.620;9.828;2023-04-15T05:40:20;3.30;99.90
54409;DHT22;40315;48.620;9.828;2023-04-15T05:42:47;3.50;99.90
54409;DHT22;40315;48.620;9.828;2023-04-15T05:45:14;3.70;99.90
54409;DHT22;40315;48.620;9.828;2023-04-15T05:47:41;3.90;99.90
54409;DHT22;40315;48.620;9.828;2023-04-15T05:50:09;4.20;99.90
54409;DHT22;40315;48.620;9.828;2023-04-15T05:52:36;4.40;99.90
54409;DHT22;40315;48.620;9.828;2023-04-15T05:55:06;4.50;99.90
54409;DHT22;40315;48.620;9.828;2023-04-15T05:57:34;4.70;99.90
54409;DHT22;40315;48.620;9.828;2023-04-15T06:00:02;4.90;99.90
54409;DHT22;40315;48.620;9.828;2023-04-15T06:02:35;5.00;99.90
54409;DHT22;40315;48.620;9.828;2023-04-15T06:05:04;5.30;99.90
54409;DHT22;40315;48.620;9.828;2023-04-15T06:07:34;5.50;99.90
54409;DHT22;40315;48.620;9.828;2023-04-15T06:10:04;5.60;99.90
54409;DHT22;40315;48.620;9.828;2023-04-15T06:12:37;5.90;99.90
54409;DHT22;40315;48.620;9.828;2023-04-15T06:15:05;5.90;99.90
54409;DHT22;40315;48.620;9.828;2023-04-15T06:17:36;5.80;99.90
54409;DHT22;40315;48.620;9.828;2023-04-15T06:20:04;5.80;99.90
54409;DHT22;40315;48.620;9.828;2023-04-15T06:22:33;5.70;99.90
54409;DHT22;40315;48.620;9.828;2023-04-15T06:25:00;5.70;99.90
54409;DHT22;40315;48.620;9.828;2023-04-15T06:27:31;5.60;99.90
54409;DHT22;40315;48.620;9.828;2023-04-15T06:29:59;5.50;99.90
54409;DHT22;40315;48.620;9.828;2023-04-15T06:32:26;5.50;99.90
54409;DHT22;40315;48.620;9.828;2023-04-15T06:34:53;5.50;99.90
54409;DHT22;40315;48.620;9.828;2023-04-15T06:37:20;5.50;99.90
54409;DHT22;40315;48.620;9.828;2023-04-15T06:39:47;5.30;99.90
54409;DHT22;40315;48.620;9.828;2023-04-15T06:42:17;5.20;99.90
54409;DHT22;40315;48.620;9.828;2023-04-15T06:44:44;5.30;99.90
54409;DHT22;40315;48.620;9.828;2023-04-15T06:47:14;5.40;99.90
54409;DHT22;40315;48.620;9.828;2023-04-15T06:49:41;5.50;99.90
54409;DHT22;40315;48.620;9.828;2023-04-15T06:52:10;5.80;99.90
54409;DHT22;40315;48.620;9.828;2023-04-15T06:54:37;6.20;99.90
54409;DHT22;40315;48.620;9.828;2023-04-15T06:57:05;7.10;99.90
54409;DHT22;40315;48.620;9.828;2023-04-15T06:59:32;6.50;99.90
54409;DHT22;40315;48.620;9.828;2023-04-15T07:01:59;6.50;99.90
54409;DHT22;40315;48.620;9.828;2023-04-15T07:04:28;7.50;99.90
54409;DHT22;40315;48.620;9.828;2023-04-15T07:06:55;7.20;99.90
54409;DHT22;40315;48.620;9.828;2023-04-15T07:09:22;7.30;99.90
54409;DHT22;40315;48.620;9.828;2023-04-15T07:11:49;7.60;99.90
54409;DHT22;40315;48.620;9.828;2023-04-15T07:14:16;7.90;99.90
54409;DHT22;40315;48.620;9.828;2023-04-15T07:16:46;8.30;99.90
54409;DHT22;40315;48.620;9.828;2023-04-15T07:19:13;8.40;99.90
54409;DHT22;40315;48.620;9.828;2023-04-15T07:21:42;8.60;99.90
54409;DHT22;40315;48.620;9.828;2023-04-15T07:24:09;8.60;99.90
54409;DHT22;40315;48.620;9.828;2023-04-15T07:26:37;8.80;99.90
54409;DHT22;40315;48.620;9.828;2023-04-15T07:29:11;8.80;99.90
54409;DHT22;40315;48.620;9.828;2023-04-15T07:31:39;9.40;99.90
54409;DHT22;40315;48.620;9.828;2023-04-15T07:34:06;10.00;99.90
54409;DHT22;40315;48.620;9.828;2023-04-15T07:36:33;9.60;99.90
54409;DHT22;40315;48.620;9.828;2023-04-15T07:39:05;10.10;99.90
54409;DHT22;40315;48.620;9.828;2023-04-15T07:41:35;11.60;99.90
54409;DHT22;40315;48.620;9.828;2023-04-15T07:44:02;11.40;99.90
54409;DHT22;40315;48.620;9.828;2023-04-15T07:46:30;11.80;99.90
54409;DHT22;40315;48.620;9.828;2023-04-15T07:48:57;12.10;99.90
54409;DHT22;40315;48.620;9.828;2023-04-15T07:51:23;11.30;99.90
54409;DHT22;40315;48.620;9.828;2023-04-15T07:53:50;11.60;99.90
54409;DHT22;40315;48.620;9.828;2023-04-15T07:56:19;12.20;99.90
54409;DHT22;40315;48.620;9.828;2023-04-15T07:58:46;12.30;99.90
54409;DHT22;40315;48.620;9.828;2023-04-15T08:01:13;12.90;99.90
54409;DHT22;40315;48.620;9.828;2023-04-15T08:03:43;11.30;99.90
54409;DHT22;40315;48.620;9.828;2023-04-15T08:06:11;11.90;99.90
54409;DHT22;40315;48.620;9.828;2023-04-15T08:08:38;11.90;99.90
54409;DHT22;40315;48.620;9.828;2023-04-15T08:11:06;12.70;99.90
54409;DHT22;40315;48.620;9.828;2023-04-15T08:13:34;13.50;99.90
54409;DHT22;40315;48.620;9.828;2023-04-15T08:16:20;14.00;99.90
54409;DHT22;40315;48.620;9.828;2023-04-15T08:18:48;14.10;99.90
54409;DHT22;40315;48.620;9.828;2023-04-15T08:21:17;13.30;99.90
54409;DHT22;40315;48.620;9.828;2023-04-15T08:23:46;12.20;99.90
54409;DHT22;40315;48.620;9.828;2023-04-15T08:26:16;12.60;99.90
54409;DHT22;40315;48.620;9.828;2023-04-15T08:28:45;13.00;99.90
54409;DHT22;40315;48.620;9.828;2023-04-15T08:31:13;13.00;99.90
54409;DHT22;40315;48.620;9.828;2023-04-15T08:33:40;12.60;99.90
54409;DHT22;40315;48.620;9.828;2023-04-15T08:36:07;12.70;99.90
54409;DHT22;40315;48.620;9.828;2023-04-15T08:38:35;12.70;99.90
54409;DHT22;40315;48.620;9.828;2023-04-15T08:41:06;12.70;99.90
54409;DHT22;40315;48.620;9.828;2023-04-15T08:43:34;11.70;99.90
54409;DHT22;40315;48.620;9.828;2023-04-15T08:46:05;11.60;99.90
54409;DHT22;40315;48.620;9.828;2023-04-15T08:48:37;11.50;99.90
54409;DHT22;40315;48.620;9.828;2023-04-15T08:51:06;11.60;99.90
54409;DHT22;40315;48.620;9.828;2023-04-15T08:53:33;11.10;99.90
54409;DHT22;40315;48.620;9.828;2023-04-15T08:56:04;11.40;99.90
54409;DHT22;40315;48.620;9.828;2023-04-15T08:58:34;11.40;99.90
54409;DHT22;40315;48.620;9.828;2023-04-15T09:01:01;11.20;99.90
54409;DHT22;40315;48.620;9.828;2023-04-15T09:03:31;11.20;99.90
54409;DHT22;40315;48.620;9.828;2023-04-15T09:06:03;11.00;99.90
54409;DHT22;40315;48.620;9.828;2023-04-15T09:08:36;12.90;99.90
54409;DHT22;40315;48.620;9.828;2023-04-15T09:11:03;12.00;99.90
54409;DHT22;40315;48.620;9.828;2023-04-15T09:13:33;11.40;99.90
54409;DHT22;40315;48.620;9.828;2023-04-15T09:16:01;11.20;99.90
54409;DHT22;40315;48.620;9.828;2023-04-15T09:18:33;11.10;99.90
54409;DHT22;40315;48.620;9.828;2023-04-15T09:21:07;11.20;99.90
54409;DHT22;40315;48.620;9.828;2023-04-15T09:23:37;11.40;99.90
54409;DHT22;40315;48.620;9.828;2023-04-15T09:26:09;11.30;99.90
54409;DHT22;40315;48.620;9.828;2023-04-15T09:28:41;11.20;99.90
54409;DHT22;40315;48.620;9.828;2023-04-15T09:31:08;11.30;99.90
54409;DHT22;40315;48.620;9.828;2023-04-15T09:33:55;11.70;99.90
54409;DHT22;40315;48.620;9.828;2023-04-15T09:36:22;11.20;99.90
54409;DHT22;40315;48.620;9.828;2023-04-15T09:39:00;11.00;99.90
54409;DHT22;40315;48.620;9.828;2023-04-15T09:41:29;10.80;99.90
54409;DHT22;40315;48.620;9.828;2023-04-15T09:43:56;11.10;99.90
54409;DHT22;40315;48.620;9.828;2023-04-15T09:46:40;11.20;99.90
54409;DHT22;40315;48.620;9.828;2023-04-15T09:49:12;11.30;99.90
54409;DHT22;40315;48.620;9.828;2023-04-15T09:51:39;11.30;99.90
54409;DHT22;40315;48.620;9.828;2023-04-15T09:54:06;11.40;99.90
54409;DHT22;40315;48.620;9.828;2023-04-15T09:56:37;11.30;99.90
54409;DHT22;40315;48.620;9.828;2023-04-15T09:59:07;11.60;99.90
54409;DHT22;40315;48.620;9.828;2023-04-15T10:01:37;11.50;99.90
54409;DHT22;40315;48.620;9.828;2023-04-15T10:04:08;11.40;99.90
54409;DHT22;40315;48.620;9.828;2023-04-15T10:06:40;11.80;99.90
54409;DHT22;40315;48.620;9.828;2023-04-15T10:09:07;11.80;99.90
54409;DHT22;40315;48.620;9.828;2023-04-15T10:11:34;11.60;99.90
54409;DHT22;40315;48.620;9.828;2023-04-15T10:14:02;11.90;99.90
54409;DHT22;40315;48.620;9.828;2023-04-15T10:16:31;12.40;99.90
54409;DHT22;40315;48.620;9.828;2023-04-15T10:19:01;12.60;99.90
54409;DHT22;40315;48.620;9.828;2023-04-15T10:21:29;12.60;99.90
54409;DHT22;40315;48.620;9.828;2023-04-15T10:24:02;12.30;99.90
54409;DHT22;40315;48.620;9.828;2023-04-15T10:26:30;12.10;99.90
54409;DHT22;40315;48.620;9.828;2023-04-15T10:28:58;11.90;99.90
54409;DHT22;40315;48.620;9.828;2023-04-15T10:31:28;11.70;99.90
54409;DHT22;40315;48.620;9.828;2023-04-15T10:33:56;12.00;99.90
54409;DHT22;40315;48.620;9.828;2023-04-15T10:36:26;12.30;99.90
54409;DHT22;40315;48.620;9.828;2023-04-15T10:38:56;12.50;99.90
54409;DHT22;40315;48.620;9.828;2023-04-15T10:41:25;12.30;99.90
54409;DHT22;40315;48.620;9.828;2023-04-15T10:43:53;12.60;99.90
54409;DHT22;40315;48.620;9.828;2023-04-15T10:46:23;12.50;99.90
54409;DHT22;40315;48.620;9.828;2023-04-15T10:48:52;12.00;99.90
54409;DHT22;40315;48.620;9.828;2023-04-15T10:51:29;11.90;99.90
54409;DHT22;40315;48.620;9.828;2023-04-15T10:53:57;11.90;99.90
54409;DHT22;40315;48.620;9.828;2023-04-15T10:56:27;12.20;99.90
54409;DHT22;40315;48.620;9.828;2023-04-15T10:58:54;12.00;99.90
54409;DHT22;40315;48.620;9.828;2023-04-15T11:01:24;12.00;99.90
54409;DHT22;40315;48.620;9.828;2023-04-15T11:04:13;12.00;99.90
54409;DHT22;40315;48.620;9.828;2023-04-15T11:06:46;12.20;99.90
54409;DHT22;40315;48.620;9.828;2023-04-15T11:09:31;11.80;99.90
54409;DHT22;40315;48.620;9.828;2023-04-15T11:12:08;12.20;99.90
54409;DHT22;40315;48.620;9.828;2023-04-15T11:14:39;12.00;99.90
54409;DHT22;40315;48.620;9.828;2023-04-15T11:17:10;11.70;99.90
54409;DHT22;40315;48.620;9.828;2023-04-15T11:19:38;12.10;99.90
54409;DHT22;40315;48.620;9.828;2023-04-15T11:22:09;12.30;99.90
54409;DHT22;40315;48.620;9.828;2023-04-15T11:25:03;12.10;99.90
54409;DHT22;40315;48.620;9.828;2023-04-15T11:27:37;11.80;99.90
54409;DHT22;40315;48.620;9.828;2023-04-15T11:30:19;11.60;99.90
54409;DHT22;40315;48.620;9.828;2023-04-15T11:32:47;11.30;99.90
54409;DHT22;40315;48.620;9.828;2023-04-15T11:35:15;11.30;99.90
54409;DHT22;40315;48.620;9.828;2023-04-15T11:37:46;11.40;99.90
54409;DHT22;40315;48.620;9.828;2023-04-15T11:40:14;11.30;99.90
54409;DHT22;40315;48.620;9.828;2023-04-15T11:42:44;11.30;99.90
54409;DHT22;40315;48.620;9.828;2023-04-15T11:45:15;11.30;99.90
54409;DHT22;40315;48.620;9.828;2023-04-15T11:47:42;11.30;99.90
54409;DHT22;40315;48.620;9.828;2023-04-15T11:50:19;11.00;99.90
54409;DHT22;40315;48.620;9.828;2023-04-15T11:52:54;11.00;99.90
54409;DHT22;40315;48.620;9.828;2023-04-15T11:55:24;11.00;99.90
54409;DHT22;40315;48.620;9.828;2023-04-15T11:58:07;11.80;99.90
54409;DHT22;40315;48.620;9.828;2023-04-15T12:00:47;11.50;99.90
54409;DHT22;40315;48.620;9.828;2023-04-15T12:03:20;11.60;99.90
54409;DHT22;40315;48.620;9.828;2023-04-15T12:06:20;11.70;99.90
54409;DHT22;40315;48.620;9.828;2023-04-15T12:11:39;11.70;99.90
54409;DHT22;40315;48.620;9.828;2023-04-15T12:14:17;11.60;99.90
54409;DHT22;40315;48.620;9.828;2023-04-15T12:16:46;12.60;99.90
54409;DHT22;40315;48.620;9.828;2023-04-15T12:19:19;11.90;99.90
54409;DHT22;40315;48.620;9.828;2023-04-15T12:21:51;11.90;99.90
54409;DHT22;40315;48.620;9.828;2023-04-15T12:24:20;11.70;99.90
54409;DHT22;40315;48.620;9.828;2023-04-15T12:26:52;11.70;99.90
54409;DHT22;40315;48.620;9.828;2023-04-15T12:29:25;11.60;99.90
54409;DHT22;40315;48.620;9.828;2023-04-15T12:31:53;11.60;99.90
54409;DHT22;40315;48.620;9.828;2023-04-15T12:34:28;11.40;99.90
54409;DHT22;40315;48.620;9.828;2023-04-15T12:36:57;11.60;99.90
54409;DHT22;40315;48.620;9.828;2023-04-15T12:39:26;11.50;99.90
54409;DHT22;40315;48.620;9.828;2023-04-15T12:41:55;11.60;99.90
54409;DHT22;40315;48.620;9.828;2023-04-15T12:44:24;11.50;99.90
54409;DHT22;40315;48.620;9.828;2023-04-15T12:46:52;11.50;99.90
54409;DHT22;40315;48.620;9.828;2023-04-15T12:49:21;11.50;99.90
54409;DHT22;40315;48.620;9.828;2023-04-15T12:51:50;11.40;99.90
54409;DHT22;40315;48.620;9.828;2023-04-15T12:54:18;11.30;99.90
54409;DHT22;40315;48.620;9.828;2023-04-15T12:56:46;11.40;99.90
54409;DHT22;40315;48.620;9.828;2023-04-15T12:59:14;11.30;99.90
54409;DHT22;40315;48.620;9.828;2023-04-15T13:01:47;11.30;99.90
54409;DHT22;40315;48.620;9.828;2023-04-15T13:04:16;11.20;99.90
54409;DHT22;40315;48.620;9.828;2023-04-15T13:06:43;11.20;99.90
54409;DHT22;40315;48.620;9.828;2023-04-15T13:09:16;11.40;99.90
54409;DHT22;40315;48.620;9.828;2023-04-15T13:11:45;11.40;99.90
54409;DHT22;40315;48.620;9.828;2023-04-15T13:14:17;11.20;99.90
54409;DHT22;40315;48.620;9.828;2023-04-15T13:19:18;10.90;99.90
54409;DHT22;40315;48.620;9.828;2023-04-15T13:21:45;10.90;99.90
54409;DHT22;40315;48.620;9.828;2023-04-15T13:24:15;10.70;99.90
54409;DHT22;40315;48.620;9.828;2023-04-15T13:26:43;10.80;99.90
54409;DHT22;40315;48.620;9.828;2023-04-15T13:29:09;10.90;99.90
54409;DHT22;40315;48.620;9.828;2023-04-15T13:31:38;10.90;99.90
54409;DHT22;40315;48.620;9.828;2023-04-15T13:34:09;10.80;99.90
54409;DHT22;40315;48.620;9.828;2023-04-15T13:36:36;10.60;99.90
54409;DHT22;40315;48.620;9.828;2023-04-15T13:39:03;10.60;99.90
54409;DHT22;40315;48.620;9.828;2023-04-15T13:41:30;10.60;99.90
54409;DHT22;40315;48.620;9.828;2023-04-15T13:44:00;10.50;99.90
54409;DHT22;40315;48.620;9.828;2023-04-15T13:46:32;10.10;99.90
54409;DHT22;40315;48.620;9.828;2023-04-15T13:48:59;9.80;99.90
54409;DHT22;40315;48.620;9.828;2023-04-15T13:51:30;9.80;99.90
54409;DHT22;40315;48.620;9.828;2023-04-15T13:54:02;9.80;99.90
54409;DHT22;40315;48.620;9.828;2023-04-15T13:56:29;9.70;99.90
54409;DHT22;40315;48.620;9.828;2023-04-15T13:58:56;9.90;99.90
54409;DHT22;40315;48.620;9.828;2023-04-15T14:01:30;9.90;99.90
54409;DHT22;40315;48.620;9.828;2023-04-15T14:03:59;9.80;99.90
54409;DHT22;40315;48.620;9.828;2023-04-15T14:06:29;9.80;99.90
54409;DHT22;40315;48.620;9.828;2023-04-15T14:08:56;9.60;99.90
54409;DHT22;40315;48.620;9.828;2023-04-15T14:11:25;9.40;99.90
54409;DHT22;40315;48.620;9.828;2023-04-15T14:13:55;9.20;99.90
54409;DHT22;40315;48.620;9.828;2023-04-15T14:16:24;9.30;99.90
54409;DHT22;40315;48.620;9.828;2023-04-15T14:18:51;9.20;99.90
54409;DHT22;40315;48.620;9.828;2023-04-15T14:21:19;9.10;99.90
54409;DHT22;40315;48.620;9.828;2023-04-15T14:23:47;9.10;99.90
54409;DHT22;40315;48.620;9.828;2023-04-15T14:26:14;9.10;99.90
54409;DHT22;40315;48.620;9.828;2023-04-15T14:28:44;8.90;99.90
54409;DHT22;40315;48.620;9.828;2023-04-15T14:31:13;8.90;99.90
54409;DHT22;40315;48.620;9.828;2023-04-15T14:33:40;8.90;99.90
54409;DHT22;40315;48.620;9.828;2023-04-15T14:36:11;8.90;99.90
54409;DHT22;40315;48.620;9.828;2023-04-15T14:38:38;9.00;99.90
54409;DHT22;40315;48.620;9.828;2023-04-15T14:41:07;9.10;99.90
54409;DHT22;40315;48.620;9.828;2023-04-15T14:43:37;9.20;99.90
54409;DHT22;40315;48.620;9.828;2023-04-15T14:46:07;9.40;99.90
54409;DHT22;40315;48.620;9.828;2023-04-15T14:48:43;9.40;99.90
54409;DHT22;40315;48.620;9.828;2023-04-15T14:51:10;9.50;99.90
54409;DHT22;40315;48.620;9.828;2023-04-15T14:53:37;9.70;99.90
54409;DHT22;40315;48.620;9.828;2023-04-15T14:56:06;9.70;99.90
54409;DHT22;40315;48.620;9.828;2023-04-15T14:58:33;9.90;99.90
54409;DHT22;40315;48.620;9.828;2023-04-15T15:01:00;9.80;99.90
54409;DHT22;40315;48.620;9.828;2023-04-15T15:03:31;9.80;99.90
54409;DHT22;40315;48.620;9.828;2023-04-15T15:06:00;9.90;99.90
54409;DHT22;40315;48.620;9.828;2023-04-15T15:08:28;9.90;99.90
54409;DHT22;40315;48.620;9.828;2023-04-15T15:10:55;10.00;99.90
54409;DHT22;40315;48.620;9.828;2023-04-15T15:13:24;10.00;99.90
54409;DHT22;40315;48.620;9.828;2023-04-15T15:15:51;10.00;99.90
54409;DHT22;40315;48.620;9.828;2023-04-15T15:18:18;9.90;99.90
54409;DHT22;40315;48.620;9.828;2023-04-15T15:20:46;9.90;99.90
54409;DHT22;40315;48.620;9.828;2023-04-15T15:23:16;9.90;99.90
54409;DHT22;40315;48.620;9.828;2023-04-15T15:25:45;9.80;99.90
54409;DHT22;40315;48.620;9.828;2023-04-15T15:28:13;9.80;99.90
54409;DHT22;40315;48.620;9.828;2023-04-15T15:30:41;9.80;99.90
54409;DHT22;40315;48.620;9.828;2023-04-15T15:33:09;9.80;99.90
54409;DHT22;40315;48.620;9.828;2023-04-15T15:35:36;9.70;99.90
54409;DHT22;40315;48.620;9.828;2023-04-15T15:38:07;9.70;99.90
54409;DHT22;40315;48.620;9.828;2023-04-15T15:40:35;9.80;99.90
54409;DHT22;40315;48.620;9.828;2023-04-15T15:43:03;9.90;99.90
54409;DHT22;40315;48.620;9.828;2023-04-15T15:45:30;9.80;99.90
54409;DHT22;40315;48.620;9.828;2023-04-15T15:47:59;9.80;99.90
54409;DHT22;40315;48.620;9.828;2023-04-15T15:50:26;9.70;99.90
54409;DHT22;40315;48.620;9.828;2023-04-15T15:52:55;9.60;99.90
54409;DHT22;40315;48.620;9.828;2023-04-15T15:55:23;9.60;99.90
54409;DHT22;40315;48.620;9.828;2023-04-15T15:57:52;9.50;99.90
54409;DHT22;40315;48.620;9.828;2023-04-15T16:00:19;9.40;99.90